Time;durP1;ratioP1;P1;durP2;ratioP2;P2;SDS_P1;SDS_P2;PMS_P1;PMS_P2;Temp;Humidity;BMP_temperature;BMP_pressure;BME280_temperature;BME280_humidity;BME280_pressure;Samples;Min_cycle;Max_cycle;Signal;HPM_P1;HPM_P2
2021/05/10 00:00:12;;;;;;;7.60;4.40;;;;;;;13.37;49.99;100107.87;128051;1098;24983;-75
2021/05/10 00:03:06;;;;;;;8.68;5.93;;;;;;;13.33;50.01;100108.45;127921;1104;23131;-75
2021/05/10 00:05:38;;;;;;;;;;;;;;;13.27;50.03;100103.91;127996;1102;24259;-75
2021/05/10 00:08:08;;;;;;;8.33;4.53;;;;;;;13.19;50.30;100100.35;127974;1104;21280;-74
2021/05/10 00:10:41;;;;;;;8.05;5.00;;;;;;;13.20;50.07;100109.13;127952;1104;22361;-75
2021/05/10 00:13:16;;;;;;;7.45;5.43;;;;;;;13.19;50.06;100100.35;127955;1104;22363;-74
2021/05/10 00:15:48;;;;;;;8.83;5.15;;;;;;;13.18;50.21;100101.34;127557;1104;22368;-74
2021/05/10 00:18:18;;;;;;;11.55;6.23;;;;;;;13.17;49.92;100091.75;127950;1104;22445;-74
2021/05/10 00:20:56;;;;;;;9.50;5.40;;;;;;;13.16;50.04;100092.77;127571;1105;22585;-74
2021/05/10 00:23:33;;;;;;;9.75;5.50;;;;;;;13.13;49.85;100090.50;127562;1103;22387;-75
2021/05/10 00:26:14;;;;;;;11.30;5.45;;;;;;;13.11;49.87;100094.34;127949;1104;24999;-75
2021/05/10 00:28:45;;;;;;;8.55;5.40;;;;;;;13.08;49.69;100087.59;127527;1104;22370;-74
2021/05/10 00:31:18;;;;;;;10.43;5.95;;;;;;;13.05;49.90;100098.56;127638;1105;22394;-74
2021/05/10 00:33:49;;;;;;;8.75;5.55;;;;;;;13.05;49.78;100101.22;127656;1104;22365;-75
2021/05/10 00:36:21;;;;;;;8.13;5.98;;;;;;;13.04;49.90;100099.59;127916;1101;24491;-74
2021/05/10 00:38:52;;;;;;;10.60;5.67;;;;;;;13.02;49.64;100095.48;127933;1101;22524;-76
2021/05/10 00:41:28;;;;;;;7.17;5.30;;;;;;;13.00;49.50;100102.82;127930;1104;22357;-75
2021/05/10 00:44:01;;;;;;;8.05;5.38;;;;;;;12.98;49.30;100095.04;127947;1101;22356;-75
2021/05/10 00:46:38;;;;;;;7.70;5.43;;;;;;;12.96;49.50;100099.70;128041;1098;24944;-76
2021/05/10 00:49:11;;;;;;;8.03;5.65;;;;;;;12.94;49.66;100099.91;128003;1105;22346;-75
2021/05/10 00:51:40;;;;;;;8.48;5.98;;;;;;;12.94;49.19;100088.48;127924;1104;22365;-74
2021/05/10 00:54:32;;;;;;;10.28;5.78;;;;;;;12.93;49.38;100094.80;127988;1104;22412;-75
2021/05/10 00:57:04;;;;;;;9.80;5.40;;;;;;;12.93;49.26;100100.92;127621;1104;22347;-74
2021/05/10 00:59:35;;;;;;;8.05;5.73;;;;;;;12.93;49.10;100100.92;127933;1101;25223;-75
2021/05/10 01:02:11;;;;;;;9.50;5.53;;;;;;;12.95;48.96;100090.11;127977;1101;22417;-75
2021/05/10 01:04:44;;;;;;;8.00;5.48;;;;;;;12.96;48.75;100097.05;127961;1104;22349;-74
2021/05/10 01:07:19;;;;;;;10.68;6.23;;;;;;;12.98;48.65;100102.18;128120;1101;22351;-74
2021/05/10 01:09:53;;;;;;;9.80;4.95;;;;;;;12.97;48.49;100097.89;128249;1098;24272;-74
2021/05/10 01:12:30;;;;;;;10.13;5.35;;;;;;;12.97;48.19;100098.71;128271;1098;22364;-74
2021/05/10 01:15:03;;;;;;;8.75;5.38;;;;;;;12.99;48.42;100087.90;128385;1101;22330;-75
2021/05/10 01:17:37;;;;;;;11.75;5.98;;;;;;;13.00;48.40;100097.52;128010;1101;22358;-74
2021/05/10 01:20:10;;;;;;;7.28;4.73;;;;;;;13.01;47.99;100091.19;128046;1104;22437;-75
2021/05/10 01:22:52;;;;;;;7.63;4.85;;;;;;;13.01;47.94;100086.70;128094;1101;22364;-73
2021/05/10 01:25:32;;;;;;;8.28;5.03;;;;;;;13.03;47.69;100094.45;127669;1103;24485;-76
2021/05/10 01:28:05;;;;;;;8.23;5.00;;;;;;;13.01;47.69;100089.36;127606;1102;22344;-75
2021/05/10 01:30:43;;;;;;;8.13;5.15;;;;;;;13.02;47.58;100093.64;127661;1105;22379;-76
2021/05/10 01:33:21;;;;;;;7.15;4.65;;;;;;;13.01;47.64;100089.36;127678;1104;23169;-76
2021/05/10 01:35:52;;;;;;;8.33;5.03;;;;;;;13.02;47.58;100093.64;127685;1101;24563;-75
2021/05/10 01:38:30;;;;;;;10.73;4.55;;;;;;;13.01;47.59;100094.66;127952;1104;22769;-75
2021/05/10 01:41:02;;;;;;;8.50;4.47;;;;;;;13.00;47.20;100093.03;127987;1104;22355;-74
2021/05/10 01:43:32;;;;;;;8.93;5.00;;;;;;;13.00;47.22;100095.68;128065;1098;24557;-74
2021/05/10 01:46:02;;;;;;;6.80;4.35;;;;;;;12.99;47.25;100096.67;128252;1098;22331;-74
2021/05/10 01:48:36;;;;;;;8.18;4.55;;;;;;;12.97;47.24;100093.41;127965;1101;22340;-75
2021/05/10 01:51:07;;;;;;;8.83;4.63;;;;;;;12.97;46.87;100088.11;127953;1101;24297;-75
2021/05/10 01:53:39;;;;;;;5.55;4.20;;;;;;;12.94;47.34;100083.99;127976;1101;22372;-76
2021/05/10 01:56:26;;;;;;;5.98;4.25;;;;;;;12.93;46.92;100082.36;127982;1104;22358;-76
2021/05/10 01:58:57;;;;;;;7.30;4.53;;;;;;;12.92;47.07;100087.84;127966;1104;22452;-76
2021/05/10 02:01:31;;;;;;;8.60;4.65;;;;;;;12.91;46.84;100091.51;127675;1105;23392;-74
2021/05/10 02:04:16;;;;;;;8.95;4.60;;;;;;;12.88;46.86;100095.34;128001;1105;23737;-74
2021/05/10 02:06:48;;;;;;;13.53;5.63;;;;;;;12.86;46.75;100084.13;127825;1098;24476;-74
2021/05/10 02:09:24;;;;;;;7.48;4.45;;;;;;;12.82;46.84;100092.63;128327;1098;25112;-74
2021/05/10 02:11:58;;;;;;;7.38;4.23;;;;;;;12.80;46.65;100087.53;128078;1101;22355;-74
2021/05/10 02:14:34;;;;;;;7.35;4.83;;;;;;;12.76;46.94;100088.08;128063;1098;22750;-74
2021/05/10 02:17:14;;;;;;;11.40;4.95;;;;;;;12.69;46.93;100088.86;128339;1098;24485;-75
2021/05/10 02:19:46;;;;;;;10.55;3.73;;;;;;;12.64;47.19;100088.59;128148;1102;22769;-75
2021/05/10 02:22:25;;;;;;;6.25;3.70;;;;;;;12.59;47.16;100090.96;128085;1101;22364;-75
2021/05/10 02:24:58;;;;;;;9.75;5.30;;;;;;;12.55;47.44;100097.65;128151;1101;22361;-73
2021/05/10 02:27:33;;;;;;;9.03;4.40;;;;;;;12.51;47.26;100095.57;128362;1098;22364;-74
2021/05/10 02:30:04;;;;;;;12.75;5.30;;;;;;;12.44;47.50;100095.50;128378;1101;22340;-75
2021/05/10 02:32:35;;;;;;;12.58;4.85;;;;;;;12.38;47.60;100105.00;128194;1098;22449;-75
2021/05/10 02:35:13;;;;;;;9.80;4.78;;;;;;;12.33;47.64;100102.09;128270;1098;22336;-75
2021/05/10 02:37:47;;;;;;;7.03;3.90;;;;;;;12.27;48.00;100096.72;128081;1101;22374;-75
2021/05/10 02:40:20;;;;;;;6.50;4.25;;;;;;;12.23;47.92;100090.97;128259;1098;22458;-75
2021/05/10 02:43:03;;;;;;;9.37;4.23;;;;;;;12.18;47.92;100088.86;128055;1101;22435;-74
2021/05/10 02:45:39;;;;;;;9.43;4.70;;;;;;;12.14;48.22;100092.89;128296;1101;22353;-75
2021/05/10 02:48:24;;;;;;;6.97;4.07;;;;;;;12.11;47.92;100093.25;128103;1101;22785;-74
2021/05/10 02:50:58;;;;;;;8.20;3.78;;;;;;;12.07;48.05;100088.52;128303;1101;22366;-76
2021/05/10 02:53:44;;;;;;;7.13;3.95;;;;;;;12.03;48.24;100085.42;128063;1098;22630;-75
2021/05/10 02:56:16;;;;;;;8.78;4.98;;;;;;;12.03;48.23;100080.13;127946;1104;22367;-76
2021/05/10 02:58:54;;;;;;;16.43;4.75;;;;;;;12.02;48.31;100081.11;127639;1105;22365;-75
2021/05/10 03:01:36;;;;;;;5.53;4.13;;;;;;;12.01;48.55;100087.42;127957;1104;22359;-74
2021/05/10 03:04:10;;;;;;;8.35;4.53;;;;;;;11.98;48.57;100085.95;127958;1104;22374;-74
2021/05/10 03:06:41;;;;;;;9.93;4.80;;;;;;;11.97;48.33;100080.86;127945;1101;24521;-74
2021/05/10 03:09:11;;;;;;;9.00;4.28;;;;;;;11.95;48.58;100088.97;127977;1104;22425;-75
2021/05/10 03:11:40;;;;;;;9.03;4.70;;;;;;;11.92;48.84;100080.56;127960;1101;22842;-75
2021/05/10 03:14:24;;;;;;;6.45;4.30;;;;;;;11.91;48.61;100084.23;128008;1098;24604;-76
2021/05/10 03:16:59;;;;;;;10.10;4.48;;;;;;;11.86;48.84;100078.65;128072;1098;22331;-75
2021/05/10 03:19:36;;;;;;;10.13;4.90;;;;;;;11.82;49.11;100074.70;128067;1102;22371;-75
2021/05/10 03:22:11;;;;;;;9.23;4.58;;;;;;;11.78;49.20;100079.54;127967;1104;22384;-75
2021/05/10 03:24:40;;;;;;;;;;;;;;;11.71;49.21;100084.73;127936;1105;22472;-74
2021/05/10 03:27:17;;;;;;;6.50;4.20;;;;;;;11.64;49.60;100091.76;127978;1104;21284;-76
2021/05/10 03:29:53;;;;;;;8.00;4.53;;;;;;;11.67;49.75;100090.58;127958;1105;22352;-75
2021/05/10 03:32:25;;;;;;;8.75;5.33;;;;;;;11.70;49.85;100093.69;127953;1105;22374;-75
2021/05/10 03:35:08;;;;;;;7.68;4.80;;;;;;;11.69;49.93;100097.31;127968;1101;24275;-76
2021/05/10 03:37:40;;;;;;;6.38;4.65;;;;;;;11.68;49.93;100098.33;128022;1104;23395;-75
2021/05/10 03:40:14;;;;;;;8.78;5.50;;;;;;;11.69;50.12;100099.95;127541;1107;22355;-75
2021/05/10 03:42:45;;;;;;;6.90;5.60;;;;;;;11.69;50.17;100094.66;127513;1107;22389;-75
2021/05/10 03:45:18;;;;;;;7.33;5.38;;;;;;;11.71;50.25;100105.09;127520;1107;22375;-75
2021/05/10 03:47:48;;;;;;;8.00;6.15;;;;;;;11.74;50.52;100102.08;127872;1105;22359;-75
2021/05/10 03:50:29;;;;;;;7.88;5.80;;;;;;;11.83;50.54;100100.16;127577;1105;22353;-75
2021/05/10 03:53:17;;;;;;;9.25;5.83;;;;;;;11.90;50.52;100087.89;127941;1104;22378;-75
2021/05/10 03:55:53;;;;;;;8.03;5.90;;;;;;;11.96;50.22;100090.63;127543;1104;24521;-75
2021/05/10 03:58:29;;;;;;;6.33;5.53;;;;;;;12.03;50.41;100093.36;127259;1104;22392;-75
2021/05/10 04:01:00;;;;;;;10.13;6.63;;;;;;;12.09;50.31;100087.30;127590;1104;22430;-74
2021/05/10 04:03:39;;;;;;;9.73;5.93;;;;;;;12.15;50.27;100089.23;127526;1105;22387;-75
2021/05/10 04:09:27;;;;;;;8.35;5.83;;;;;;;12.34;49.84;100102.91;127618;1105;22399;-74
2021/05/10 04:15:02;;;;;;;9.75;5.88;;;;;;;12.53;49.65;100091.73;127834;1104;22393;-75
2021/05/10 04:17:37;;;;;;;7.83;5.33;;;;;;;12.61;49.25;100102.20;127960;1101;22341;-74
2021/05/10 04:20:21;;;;;;;7.75;6.03;;;;;;;12.71;49.31;100101.91;127602;1105;23164;-76
2021/05/10 04:22:54;;;;;;;6.65;5.83;;;;;;;12.82;49.10;100105.89;127945;1104;22419;-76
2021/05/10 04:25:28;;;;;;;10.15;6.20;;;;;;;12.91;49.01;100099.46;127977;1101;24539;-74
2021/05/10 04:27:59;;;;;;;9.23;5.73;;;;;;;13.01;48.83;100101.80;127929;1104;22303;-75
2021/05/10 04:30:32;;;;;;;7.48;5.53;;;;;;;13.15;48.91;100090.30;127985;1101;24319;-74
2021/05/10 04:33:14;;;;;;;11.20;6.08;;;;;;;13.30;48.48;100098.22;127956;1105;22811;-74
2021/05/10 04:35:46;;;;;;;7.35;4.80;;;;;;;13.45;48.10;100098.13;127970;1104;22380;-75
2021/05/10 04:38:23;;;;;;;9.20;5.38;;;;;;;13.66;48.05;100100.71;128027;1101;22352;-75
2021/05/10 04:41:00;;;;;;;6.93;5.05;;;;;;;13.84;47.55;100090.42;128131;1098;24488;-74
2021/05/10 04:43:35;;;;;;;9.35;4.43;;;;;;;14.01;46.95;100093.58;128063;1098;22420;-74
2021/05/10 04:46:14;;;;;;;7.43;4.73;;;;;;;14.13;46.63;100094.67;127970;1104;22340;-75
2021/05/10 04:48:44;;;;;;;6.73;4.43;;;;;;;14.27;46.18;100084.92;127942;1104;22361;-74
2021/05/10 04:51:15;;;;;;;5.90;4.63;;;;;;;14.43;45.84;100085.58;127979;1101;25203;-74
2021/05/10 04:54:05;;;;;;;6.43;4.68;;;;;;;14.62;45.51;100087.52;127995;1104;22355;-76
2021/05/10 04:59:49;;;;;;;5.15;3.85;;;;;;;15.09;44.71;100080.43;127985;1104;22340;-75
2021/05/10 05:02:20;;;;;;;5.80;3.68;;;;;;;15.33;44.26;100092.33;128003;1101;24240;-76
2021/05/10 05:04:57;;;;;;;6.88;3.85;;;;;;;15.59;43.65;100082.67;128144;1101;22367;-75
2021/05/10 05:07:40;;;;;;;6.98;4.00;;;;;;;15.85;42.87;100082.65;128091;1102;22343;-74
2021/05/10 05:10:29;;;;;;;5.35;3.70;;;;;;;16.15;42.33;100090.15;128086;1101;22421;-75
2021/05/10 05:13:08;;;;;;;5.55;4.08;;;;;;;16.48;41.67;100092.67;128252;1101;22383;-75
2021/05/10 05:15:46;;;;;;;5.10;3.78;;;;;;;16.77;41.50;100095.84;127942;1104;22340;-76
2021/05/10 05:18:22;;;;;;;4.98;3.33;;;;;;;17.09;40.51;100091.30;127971;1104;22341;-74
2021/05/10 05:21:05;;;;;;;8.83;3.43;;;;;;;17.40;39.89;100085.93;127956;1104;22366;-76
2021/05/10 05:23:41;;;;;;;6.53;3.60;;;;;;;17.75;39.51;100095.26;128103;1104;22411;-75
2021/05/10 05:26:11;;;;;;;6.00;3.50;;;;;;;18.02;38.82;100101.17;127993;1101;24491;-75
2021/05/10 05:28:42;;;;;;;5.78;3.95;;;;;;;18.29;38.15;100102.52;127977;1101;22706;-75
2021/05/10 05:31:22;;;;;;;9.10;3.60;;;;;;;18.54;37.52;100083.66;127982;1101;22437;-75
2021/05/10 05:33:57;;;;;;;5.48;3.90;;;;;;;18.87;37.48;100073.58;128168;1101;22346;-76
2021/05/10 05:36:48;;;;;;;5.80;3.40;;;;;;;19.18;36.75;100061.75;128008;1105;22341;-75
2021/05/10 05:39:23;;;;;;;7.58;3.40;;;;;;;19.42;35.47;100068.74;127696;1102;22374;-76
2021/05/10 05:42:02;;;;;;;5.73;3.15;;;;;;;19.66;35.27;100069.61;127686;1103;24525;-76
2021/05/10 05:44:35;;;;;;;5.37;3.33;;;;;;;19.81;34.57;100063.75;127104;1108;22817;-75
2021/05/10 05:47:05;;;;;;;5.10;3.50;;;;;;;19.92;34.28;100062.09;127000;1108;22406;-75
2021/05/10 05:50:17;;;;;;;6.45;2.90;;;;;;;19.95;33.87;100058.94;126774;1111;22478;-75
2021/05/10 05:53:00;;;;;;;10.78;3.53;;;;;;;20.02;33.15;100051.58;127014;1108;22422;-75
2021/05/10 05:55:31;;;;;;;9.00;3.45;;;;;;;20.03;33.20;100052.42;127061;1108;22497;-76
2021/05/10 05:58:02;;;;;;;5.95;3.13;;;;;;;20.08;32.94;100056.00;127441;1105;22381;-76
2021/05/10 06:00:36;;;;;;;10.23;3.93;;;;;;;20.31;33.13;100063.16;127653;1107;22394;-75
2021/05/10 06:03:11;;;;;;;5.13;3.10;;;;;;;20.59;32.59;100065.08;127596;1107;24027;-75
2021/05/10 06:05:46;;;;;;;8.38;3.73;;;;;;;20.78;31.73;100051.42;127800;1104;22342;-76
2021/05/10 06:08:17;;;;;;;8.60;3.30;;;;;;;20.95;31.63;100054.94;127614;1103;22377;-75
2021/05/10 06:10:53;;;;;;;5.98;2.95;;;;;;;21.13;30.94;100060.08;128017;1101;22361;-76
2021/05/10 06:13:34;;;;;;;13.33;3.45;;;;;;;21.16;30.17;100048.05;127990;1104;22341;-75
2021/05/10 06:16:05;;;;;;;5.95;3.23;;;;;;;21.27;30.10;100060.56;128015;1104;22392;-76
2021/05/10 06:18:38;;;;;;;4.90;2.75;;;;;;;21.40;29.28;100056.76;128129;1104;22342;-74
2021/05/10 06:21:15;;;;;;;4.10;2.33;;;;;;;21.50;29.65;100056.91;127534;1105;22360;-75
2021/05/10 06:23:48;;;;;;;3.77;2.53;;;;;;;21.82;29.73;100064.31;127092;1108;22403;-77
2021/05/10 06:26:27;;;;;;;3.80;2.70;;;;;;;22.08;28.39;100066.27;127261;1105;22375;-75
2021/05/10 06:29:06;;;;;;;6.60;2.78;;;;;;;21.71;28.66;100047.24;127525;1106;22385;-75
2021/05/10 06:31:39;;;;;;;3.90;2.70;;;;;;;21.25;28.80;100040.37;127073;1107;24304;-74
2021/05/10 06:34:15;;;;;;;6.20;2.70;;;;;;;21.03;29.16;100033.06;127097;1107;22398;-76
2021/05/10 06:37:02;;;;;;;4.18;2.65;;;;;;;21.13;29.16;100030.54;127098;1108;22390;-74
2021/05/10 06:39:37;;;;;;;3.80;2.58;;;;;;;21.47;29.37;100027.03;127544;1107;22397;-75
2021/05/10 06:42:13;;;;;;;5.65;3.00;;;;;;;21.74;28.25;100048.63;127554;1106;24550;-75
2021/05/10 06:44:47;;;;;;;4.73;2.78;;;;;;;22.03;28.57;100047.39;127092;1108;22491;-75
2021/05/10 06:47:38;;;;;;;4.63;2.50;;;;;;;22.16;27.96;100050.77;127533;1104;22405;-76
2021/05/10 06:50:12;;;;;;;5.97;3.00;;;;;;;22.32;27.63;100055.27;128013;1101;24159;-75
2021/05/10 06:52:42;;;;;;;4.13;2.75;;;;;;;22.60;27.69;100056.11;128029;1104;22461;-76
2021/05/10 06:55:26;;;;;;;4.70;2.38;;;;;;;22.80;27.13;100061.69;128041;1101;23122;-75
2021/05/10 06:58:51;;;;;;;3.70;2.55;;;;;;;23.03;27.59;100060.58;128037;1104;22382;-75
2021/05/10 07:01:48;;;;;;;4.08;2.85;;;;;;;23.43;27.16;100060.05;128027;1101;22783;-75
2021/05/10 07:04:32;;;;;;;8.03;2.93;;;;;;;23.44;26.52;100050.08;128152;1101;22378;-75
2021/05/10 07:07:11;;;;;;;3.58;2.58;;;;;;;23.43;26.28;100053.86;128291;1101;22477;-76
2021/05/10 07:10:13;;;;;;;5.30;3.08;;;;;;;23.54;26.11;100055.53;128093;1101;22346;-75
2021/05/10 07:13:23;;;;;;;6.73;2.53;;;;;;;23.61;25.84;100066.09;128108;1101;22350;-77
2021/05/10 07:16:56;;;;;;;8.13;3.17;;;;;;;23.67;25.95;100059.66;128131;1102;22370;-76
2021/05/10 07:19:35;;;;;;;8.20;2.73;;;;;;;23.65;25.47;100048.30;128105;1101;22346;-76
2021/05/10 07:22:38;;;;;;;24.53;22.20;;;;;;;23.86;25.45;100043.88;128345;1101;22368;-75
2021/05/10 07:25:08;;;;;;;5.95;4.18;;;;;;;24.13;25.38;100049.11;128111;1098;22364;-75
2021/05/10 07:27:59;;;;;;;5.28;3.28;;;;;;;24.41;25.32;100048.66;128000;1104;22366;-76
2021/05/10 07:30:59;;;;;;;;;;;;;;;24.79;25.12;100038.47;127764;1105;22440;-75
2021/05/10 07:33:45;;;;;;;3.80;2.25;;;;;;;24.70;24.36;100040.08;127566;1107;22381;-76
2021/05/10 07:37:19;;;;;;;10.98;2.90;;;;;;;24.41;25.04;100043.26;127588;1105;24202;-85
2021/05/10 07:41:20;;;;;;;;;;;;;;;;;;;;;
2021/05/10 07:44:08;;;;;;;3.25;2.10;;;;;;;24.71;25.11;100028.19;127564;1107;22400;-76
2021/05/10 07:47:37;;;;;;;4.13;2.33;;;;;;;24.84;24.83;100040.35;127228;1108;22371;-75
2021/05/10 07:51:03;;;;;;;;;;;;;;;;;;;;;
2021/05/10 07:57:54;;;;;;;;;;;;;;;;;;;;;
2021/05/10 08:01:06;;;;;;;4.20;2.03;;;;;;;25.27;24.41;100028.19;127647;1107;22323;-77
2021/05/10 08:04:37;;;;;;;6.08;2.08;;;;;;;25.78;24.41;100024.53;127540;1107;22374;-78
2021/05/10 08:08:05;;;;;;;9.73;2.13;;;;;;;26.18;24.13;100028.97;127608;1106;22385;-77
2021/05/10 08:11:21;;;;;;;;;;;;;;;;;;;;;
2021/05/10 08:14:31;;;;;;;;;;;;;;;;;;;;;
2021/05/10 08:17:21;;;;;;;12.38;2.23;;;;;;;26.53;23.00;100027.19;126992;1108;24214;-78
2021/05/10 08:20:32;;;;;;;5.63;2.20;;;;;;;26.44;23.13;100035.05;126953;1108;22542;-78
2021/05/10 08:23:39;;;;;;;;;;;;;;;26.31;22.63;100035.67;126976;1111;22415;-78
2021/05/10 08:26:26;;;;;;;9.23;4.50;;;;;;;26.54;23.31;100045.05;127586;1108;21304;-79
2021/05/10 08:29:55;;;;;;;13.43;2.58;;;;;;;26.91;22.60;100030.14;127031;1108;24305;-78
2021/05/10 08:32:53;;;;;;;7.70;2.50;;;;;;;26.86;22.68;100032.91;126968;1108;22382;-79
2021/05/10 08:35:47;;;;;;;8.20;2.43;;;;;;;26.96;22.54;100027.39;127172;1108;22387;-79
2021/05/10 08:38:35;;;;;;;10.73;2.60;;;;;;;27.08;22.40;100014.25;127116;1108;22399;-77
2021/05/10 08:41:30;;;;;;;17.25;3.10;;;;;;;27.15;21.85;100013.95;127223;1108;22414;-78
2021/05/10 08:44:15;;;;;;;10.45;2.40;;;;;;;27.23;21.87;100013.34;127342;1105;22367;-78
2021/05/10 08:46:56;;;;;;;11.28;2.05;;;;;;;27.18;21.99;99997.91;127684;1104;23320;-78
2021/05/10 08:50:12;;;;;;;11.98;2.40;;;;;;;27.16;21.64;100000.13;128237;1101;22350;-78
2021/05/10 08:52:54;;;;;;;17.20;2.78;;;;;;;27.23;21.99;100001.69;127671;1105;22374;-79
2021/05/10 08:55:46;;;;;;;20.48;3.48;;;;;;;27.14;21.82;99988.74;128049;1104;22447;-76
2021/05/10 08:58:45;;;;;;;10.10;1.95;;;;;;;27.23;22.04;99980.00;127884;1104;22328;-77
2021/05/10 09:01:23;;;;;;;13.70;2.20;;;;;;;27.25;21.77;99997.57;127970;1104;22361;-81
2021/05/10 09:04:09;;;;;;;8.20;2.10;;;;;;;27.15;21.62;99987.64;127603;1104;24511;-79
2021/05/10 09:07:33;;;;;;;9.68;1.85;;;;;;;27.08;21.72;99999.89;128078;1101;22347;-78
2021/05/10 09:10:24;;;;;;;;;;;;;;;26.87;21.26;99999.28;127830;1103;24491;-78
2021/05/10 09:13:41;;;;;;;12.48;2.55;;;;;;;26.94;22.04;99992.42;127726;1104;21343;-80
2021/05/10 09:16:58;;;;;;;13.55;3.05;;;;;;;27.08;21.91;99989.05;127655;1108;22373;-79
2021/05/10 09:20:35;;;;;;;10.05;2.25;;;;;;;27.40;21.98;99993.91;127749;1104;22352;-80
2021/05/10 09:23:36;;;;;;;10.90;1.90;;;;;;;27.76;21.83;100007.03;127962;1104;22369;-77
2021/05/10 09:27:48;;;;;;;;;;;;;;;;;;;;;
2021/05/10 09:30:54;;;;;;;7.90;1.98;;;;;;;27.72;21.52;99987.01;127753;1103;24492;-79
2021/05/10 09:34:39;;;;;;;24.63;2.90;;;;;;;27.93;21.17;99985.69;127824;1104;23592;-77
2021/05/10 09:38:07;;;;;;;9.83;2.83;;;;;;;27.88;21.19;99974.89;127848;1104;22365;-76
2021/05/10 09:40:57;;;;;;;9.40;1.88;;;;;;;27.90;21.19;99972.70;127668;1105;22425;-79
2021/05/10 09:43:42;;;;;;;9.83;2.38;;;;;;;28.03;21.29;99974.69;127807;1103;22415;-78
2021/05/10 09:46:38;;;;;;;9.85;2.20;;;;;;;28.41;21.24;99971.98;127748;1104;22387;-78
2021/05/10 09:49:22;;;;;;;12.28;3.03;;;;;;;28.59;21.04;99976.59;127742;1105;22416;-79
2021/05/10 09:52:24;;;;;;;4.38;1.95;;;;;;;28.70;21.04;99981.86;127681;1103;22369;-79
2021/05/10 09:55:09;;;;;;;7.80;1.73;;;;;;;28.69;20.83;99974.78;127647;1105;22350;-76
2021/05/10 09:57:56;;;;;;;8.70;1.63;;;;;;;28.44;20.46;99981.45;127621;1105;23308;-76
2021/05/10 10:00:33;;;;;;;15.13;2.95;;;;;;;28.43;20.99;99974.42;127588;1107;22375;-78
2021/05/10 10:03:39;;;;;;;11.03;1.83;;;;;;;28.23;20.67;99995.32;127203;1108;22466;-77
2021/05/10 10:06:24;;;;;;;7.80;1.60;;;;;;;27.96;20.88;99981.56;127325;1108;22842;-77
2021/05/10 10:09:05;;;;;;;8.08;1.40;;;;;;;27.74;21.19;99980.20;127146;1108;22386;-77
2021/05/10 10:11:45;;;;;;;14.80;3.55;;;;;;;27.64;21.30;99958.63;127235;1107;25106;-78
2021/05/10 10:14:20;;;;;;;8.08;1.88;;;;;;;27.85;21.10;99956.47;126764;1111;22407;-78
2021/05/10 10:17:12;;;;;;;22.70;3.00;;;;;;;28.03;21.40;99961.12;126990;1111;22612;-77
2021/05/10 10:19:45;;;;;;;9.68;2.68;;;;;;;28.25;21.11;99956.98;127126;1110;22627;-77
2021/05/10 10:22:20;;;;;;;12.28;2.75;;;;;;;28.26;20.97;99956.70;127032;1111;23402;-77
2021/05/10 10:24:57;;;;;;;42.28;3.00;;;;;;;28.15;20.84;99953.31;126776;1109;22410;-78
2021/05/10 10:27:54;;;;;;;12.20;2.10;;;;;;;27.98;21.03;99958.45;127516;1103;22926;-77
2021/05/10 10:30:31;;;;;;;12.55;3.05;;;;;;;27.82;21.07;99947.00;127632;1105;24946;-79
2021/05/10 10:33:26;;;;;;;12.98;2.53;;;;;;;27.66;21.43;99948.30;127390;1107;22393;-78
2021/05/10 10:36:03;;;;;;;7.55;2.48;;;;;;;27.48;21.37;99949.86;127647;1108;22367;-77
2021/05/10 10:38:37;;;;;;;10.03;2.50;;;;;;;27.36;21.58;99955.70;127627;1108;22575;-79
2021/05/10 10:41:25;;;;;;;12.63;3.63;;;;;;;27.19;21.88;99952.63;127909;1101;24180;-77
2021/05/10 10:44:33;;;;;;;3.73;1.70;;;;;;;27.09;21.94;99945.40;128039;1101;24598;-77
2021/05/10 10:47:10;;;;;;;8.95;1.60;;;;;;;26.92;22.39;99953.14;127647;1107;22414;-76
2021/05/10 10:49:58;;;;;;;15.68;3.25;;;;;;;26.92;22.35;99953.14;127110;1108;24611;-78
2021/05/10 10:52:50;;;;;;;8.85;2.25;;;;;;;26.88;22.43;99955.62;127611;1104;22383;-76
2021/05/10 10:55:40;;;;;;;7.70;3.43;;;;;;;26.87;22.77;99948.59;127128;1109;23342;-77
2021/05/10 10:58:19;;;;;;;4.58;2.08;;;;;;;26.85;22.33;99958.90;126768;1111;22405;-78
2021/05/10 11:01:22;;;;;;;10.48;2.25;;;;;;;26.76;22.66;99955.20;126990;1111;22412;-77
2021/05/10 11:04:26;;;;;;;13.10;2.40;;;;;;;26.54;22.87;99962.98;126713;1114;22385;-79
2021/05/10 11:08:07;;;;;;;4.95;2.10;;;;;;;26.23;23.29;99969.39;127031;1108;25502;-77
2021/05/10 11:10:58;;;;;;;9.38;1.98;;;;;;;26.05;23.67;99956.50;126981;1108;22397;-79
2021/05/10 11:13:40;;;;;;;15.13;2.40;;;;;;;25.90;23.71;99951.19;126819;1111;22488;-78
2021/05/10 11:16:18;;;;;;;10.80;2.80;;;;;;;25.84;23.93;99961.23;127209;1107;22335;-79
2021/05/10 11:19:38;;;;;;;;;;;;;;;;;;;;;
2021/05/10 11:22:37;;;;;;;8.10;2.10;;;;;;;25.82;23.99;99971.51;127017;1111;22442;-78
2021/05/10 11:25:42;;;;;;;13.18;2.30;;;;;;;25.86;24.00;99960.94;127240;1111;22381;-79
2021/05/10 11:28:41;;;;;;;15.60;2.73;;;;;;;25.79;24.25;99967.45;127006;1111;22856;-80
2021/05/10 11:31:43;;;;;;;14.25;2.48;;;;;;;25.84;24.08;99982.88;127283;1108;22656;-78
2021/05/10 11:34:33;;;;;;;11.75;3.23;;;;;;;25.87;24.16;99984.22;127154;1109;22455;-78
2021/05/10 11:37:31;;;;;;;11.43;2.50;;;;;;;25.84;24.12;99973.95;127689;1105;22358;-77
2021/05/10 11:40:05;;;;;;;9.28;2.50;;;;;;;25.87;23.99;99973.40;127689;1105;22400;-78
2021/05/10 11:42:45;;;;;;;13.75;2.95;;;;;;;25.87;24.36;99968.79;128392;1101;22365;-79
2021/05/10 11:45:44;;;;;;;8.60;2.55;;;;;;;25.86;24.19;99982.58;128207;1101;22352;-78
2021/05/10 11:48:42;;;;;;;12.07;2.20;;;;;;;25.75;24.47;99968.27;127996;1104;22381;-78
2021/05/10 11:51:24;;;;;;;8.97;1.83;;;;;;;25.80;24.57;99971.80;127983;1101;22431;-80
2021/05/10 11:54:45;;;;;;;;;;;;;;;;;;;;;
2021/05/10 11:57:27;;;;;;;8.38;2.90;;;;;;;25.89;24.79;99953.09;127598;1108;22580;-80
2021/05/10 12:00:14;;;;;;;5.45;1.60;;;;;;;25.87;24.36;99965.28;126946;1108;24192;-78
2021/05/10 12:02:50;;;;;;;4.40;1.68;;;;;;;25.84;24.82;99957.72;127023;1111;22458;-78
2021/05/10 12:05:23;;;;;;;6.60;2.00;;;;;;;25.87;25.33;99959.87;126784;1109;22491;-78
2021/05/10 12:08:13;;;;;;;9.45;1.78;;;;;;;25.94;24.74;99950.34;127008;1107;24583;-77
2021/05/10 12:10:52;;;;;;;11.85;1.88;;;;;;;25.94;24.83;99952.25;127070;1111;22419;-78
2021/05/10 12:13:29;;;;;;;4.95;2.00;;;;;;;25.98;24.96;99945.19;127009;1111;22513;-76
2021/05/10 12:16:18;;;;;;;8.98;2.70;;;;;;;26.08;24.61;99953.23;127010;1111;24085;-78
2021/05/10 12:19:06;;;;;;;10.23;1.53;;;;;;;26.12;24.73;99946.16;127450;1108;22429;-78
2021/05/10 12:22:05;;;;;;;10.65;1.63;;;;;;;26.15;24.65;99944.80;127902;1107;22527;-80
2021/05/10 12:25:05;;;;;;;6.10;2.00;;;;;;;26.09;24.54;99956.75;127726;1105;24901;-79
2021/05/10 12:28:06;;;;;;;4.50;2.03;;;;;;;26.06;24.61;99947.31;127972;1104;22371;-78
2021/05/10 12:30:49;;;;;;;9.78;2.50;;;;;;;26.05;24.70;99951.89;127626;1108;22435;-79
2021/05/10 12:33:31;;;;;;;6.88;1.68;;;;;;;26.03;24.83;99958.70;127618;1105;22396;-79
2021/05/10 12:36:25;;;;;;;9.45;2.03;;;;;;;26.01;24.98;99952.74;128078;1101;24266;-78
2021/05/10 12:39:13;;;;;;;;;;;;;;;26.02;25.03;99946.23;128175;1104;23056;-79
2021/05/10 12:42:23;;;;;;;5.00;1.58;;;;;;;26.07;24.99;99943.51;128026;1104;22992;-77
2021/05/10 12:45:22;;;;;;;5.38;1.95;;;;;;;26.22;25.17;99937.97;127811;1104;22496;-78
2021/05/10 12:48:39;;;;;;;5.13;2.23;;;;;;;26.36;25.28;99935.46;127638;1103;22355;-79
2021/05/10 12:51:37;;;;;;;;;;;;;;;26.47;25.09;99947.02;128564;1103;24832;-78
2021/05/10 12:54:27;;;;;;;6.10;1.83;;;;;;;26.46;25.39;99942.70;128014;1104;21273;-79
2021/05/10 12:57:10;;;;;;;6.08;2.78;;;;;;;26.53;25.06;99936.98;128074;1100;22422;-79
2021/05/10 13:00:10;;;;;;;4.35;1.98;;;;;;;26.60;24.85;99940.98;128127;1104;22337;-79
2021/05/10 13:02:45;;;;;;;9.23;1.85;;;;;;;26.55;24.94;99943.72;127551;1105;22585;-77
2021/05/10 13:05:43;;;;;;;11.58;1.73;;;;;;;26.56;24.87;99931.81;127634;1101;22346;-78